RYR9154 LEMH-EGCC
Flight info
| Callsign | RYR9154 |
|---|---|
| Flight time | N/A |
| Altitude | 34000 |
| Route | MEROS N853 LUMAS DCT SOFFY DCT MRM DCT MTL DCT ETREK DCT MADOT DCT MOPEM DCT CACHI DCT AVLON DCT OKRIX DCT BRY DCT CLM DCT KOPOR DCT VESAN DCT RATUK DCT SOVAT L613 SANDY UN57 WELIN T420 ELVOS |
| Aircraft | B738/M-SDE2E3FGHIRWXY/LB1 |
Departure
| Time | 2026-04-27 07:58 |
|---|---|
| Airport | Menorca Airport (LEMH) |
Arrival
| Time | N/A |
|---|---|
| Airport | Manchester Airport (EGCC) |
| Time | Latitude | Longitude | Altitude | Speed | Heading |
|---|---|---|---|---|---|
| 2026-04-27 07:27 | 39.86425 | 4.22391 | 289 ft | 0 kts | 99° |
| 2026-04-27 07:48 | 39.86426 | 4.22385 | 285 ft | 3 kts | 99° |
| 2026-04-27 07:49 | 39.86430 | 4.22353 | 286 ft | 2 kts | 99° |
| 2026-04-27 07:49 | 39.86435 | 4.22325 | 289 ft | 4 kts | 123° |
| 2026-04-27 07:49 | 39.86449 | 4.22313 | 293 ft | 4 kts | 189° |
| 2026-04-27 07:49 | 39.86470 | 4.22318 | 291 ft | 0 kts | 189° |
| 2026-04-27 07:54 | 39.86463 | 4.22316 | 287 ft | 6 kts | 189° |
| 2026-04-27 07:54 | 39.86370 | 4.22298 | 287 ft | 21 kts | 188° |
| 2026-04-27 07:54 | 39.86229 | 4.22267 | 287 ft | 16 kts | 189° |
| 2026-04-27 07:54 | 39.86186 | 4.22189 | 292 ft | 12 kts | 275° |
| 2026-04-27 07:55 | 39.86167 | 4.22086 | 295 ft | 15 kts | 209° |
| 2026-04-27 07:55 | 39.86063 | 4.22062 | 294 ft | 15 kts | 188° |
| 2026-04-27 07:55 | 39.85959 | 4.22041 | 295 ft | 16 kts | 188° |
| 2026-04-27 07:55 | 39.85799 | 4.22008 | 294 ft | 32 kts | 189° |
| 2026-04-27 07:56 | 39.85583 | 4.21963 | 286 ft | 31 kts | 188° |
| 2026-04-27 07:56 | 39.85370 | 4.21919 | 281 ft | 30 kts | 188° |
| 2026-04-27 07:56 | 39.85195 | 4.21884 | 280 ft | 23 kts | 188° |
| 2026-04-27 07:56 | 39.85129 | 4.21802 | 285 ft | 14 kts | 278° |
| 2026-04-27 07:57 | 39.85146 | 4.21675 | 288 ft | 14 kts | 284° |
| 2026-04-27 07:57 | 39.85233 | 4.21654 | 289 ft | 19 kts | 9° |
| 2026-04-27 07:57 | 39.85593 | 4.21728 | 292 ft | 85 kts | 9° |
| 2026-04-27 07:57 | 39.86382 | 4.21892 | 302 ft | 143 kts | 9° |
| 2026-04-27 07:58 | 39.87514 | 4.22115 | 438 ft | 179 kts | 8° |
| 2026-04-27 07:58 | 39.88730 | 4.22225 | 1310 ft | 170 kts | 5° |
| 2026-04-27 07:58 | 39.89893 | 4.22454 | 2075 ft | 171 kts | 13° |
| 2026-04-27 07:58 | 39.91121 | 4.22776 | 2388 ft | 196 kts | 13° |
| 2026-04-27 07:59 | 39.92569 | 4.23144 | 2607 ft | 221 kts | 12° |
| 2026-04-27 07:59 | 39.95752 | 4.23873 | 3514 ft | 243 kts | 9° |
| 2026-04-27 07:59 | 39.97513 | 4.24252 | 3969 ft | 259 kts | 9° |
| 2026-04-27 08:00 | 39.99306 | 4.24631 | 4733 ft | 262 kts | 9° |
| 2026-04-27 08:00 | 40.01116 | 4.25014 | 5510 ft | 265 kts | 9° |
| 2026-04-27 08:00 | 40.02918 | 4.25425 | 6241 ft | 268 kts | 10° |
| 2026-04-27 08:00 | 40.04766 | 4.25864 | 6953 ft | 271 kts | 10° |
| 2026-04-27 08:01 | 40.06632 | 4.26311 | 7666 ft | 274 kts | 10° |
| 2026-04-27 08:01 | 40.08520 | 4.26764 | 8366 ft | 277 kts | 10° |
| 2026-04-27 08:01 | 40.10426 | 4.27220 | 9077 ft | 280 kts | 10° |